createdAt,value
2022-07-29T00:02:56.965Z,95886.81
2022-07-29T00:08:00.008Z,95877.09
2022-07-29T00:13:03.422Z,95883.00
2022-07-29T00:18:07.753Z,95878.50
2022-07-29T00:23:13.496Z,95874.44
2022-07-29T00:28:16.627Z,95872.09
2022-07-29T00:33:20.837Z,95876.03
2022-07-29T00:38:23.700Z,95878.09
2022-07-29T00:43:26.568Z,95878.31
2022-07-29T00:48:30.864Z,95880.16
2022-07-29T00:53:34.230Z,95879.50
2022-07-29T00:58:37.096Z,95881.66
2022-07-29T01:03:41.347Z,95886.22
2022-07-29T01:08:44.914Z,95882.16
2022-07-29T01:13:49.614Z,95886.44
2022-07-29T01:19:02.774Z,95882.16
2022-07-29T01:24:30.830Z,95880.78
2022-07-29T01:29:40.579Z,95875.09
2022-07-29T01:34:54.663Z,95868.75
2022-07-29T01:39:59.619Z,95866.75
2022-07-29T01:45:11.483Z,95873.13
2022-07-29T01:50:18.342Z,95867.63
2022-07-29T01:55:24.282Z,95868.22
2022-07-29T02:00:29.790Z,95868.88
2022-07-29T02:05:34.133Z,95865.81
2022-07-29T02:10:39.186Z,95881.88
2022-07-29T02:15:44.614Z,95873.94
2022-07-29T02:20:51.382Z,95879.88
2022-07-29T02:25:57.078Z,95889.19
2022-07-29T02:31:04.385Z,95895.94
2022-07-29T02:36:07.786Z,95891.63
2022-07-29T02:41:14.120Z,95891.44
2022-07-29T02:46:28.890Z,95883.50
2022-07-29T02:51:43.433Z,95876.97
2022-07-29T02:56:48.507Z,95878.78
2022-07-29T03:01:54.509Z,95885.69
2022-07-29T03:07:01.408Z,95878.19
2022-07-29T03:12:05.819Z,95885.50
2022-07-29T03:17:11.934Z,95882.31
2022-07-29T03:22:15.794Z,95892.47
2022-07-29T03:27:22.136Z,95890.03
2022-07-29T03:32:26.343Z,95891.63
2022-07-29T03:37:31.446Z,95883.50
2022-07-29T03:42:35.864Z,95879.00
2022-07-29T03:47:50.643Z,95877.81
2022-07-29T03:52:54.529Z,95882.69
2022-07-29T03:57:59.481Z,95882.28
2022-07-29T04:03:05.814Z,95899.78
2022-07-29T04:08:13.633Z,95896.31
2022-07-29T04:13:16.428Z,95904.69
2022-07-29T04:18:20.764Z,95913.59
2022-07-29T04:23:23.690Z,95915.66
2022-07-29T04:28:27.083Z,95913.19
2022-07-29T04:33:31.416Z,95934.34
2022-07-29T04:38:34.218Z,95922.13
2022-07-29T04:43:37.864Z,95925.41
2022-07-29T04:48:42.210Z,95937.81
2022-07-29T04:53:45.249Z,95940.03
2022-07-29T04:58:48.611Z,95932.09
2022-07-29T05:03:56.997Z,95931.69
2022-07-29T05:09:02.856Z,95936.38
2022-07-29T05:14:06.005Z,95946.13
2022-07-29T05:19:14.134Z,95946.31
2022-07-29T05:24:18.008Z,95954.59
2022-07-29T05:29:44.390Z,95945.59
2022-07-29T05:34:50.854Z,95950.03
2022-07-29T05:39:57.145Z,95955.47
2022-07-29T05:45:00.516Z,95961.34
2022-07-29T05:50:05.527Z,95964.78
2022-07-29T05:55:08.998Z,95966.41
2022-07-29T06:00:12.979Z,95964.22
2022-07-29T06:05:17.486Z,95968.31
2022-07-29T06:10:20.133Z,95972.63
2022-07-29T06:15:26.706Z,95977.41
2022-07-29T06:20:32.005Z,95974.44
2022-07-29T06:25:36.377Z,95988.69
2022-07-29T06:30:39.326Z,95983.06
2022-07-29T06:35:48.432Z,95991.63
2022-07-29T06:41:08.626Z,95985.53
2022-07-29T06:46:13.485Z,95993.72
2022-07-29T06:51:22.946Z,95985.63
2022-07-29T06:56:26.333Z,96002.59
2022-07-29T07:01:29.207Z,95994.75
2022-07-29T07:06:33.510Z,96001.09
2022-07-29T07:11:36.390Z,96020.47
2022-07-29T07:16:39.321Z,96016.72
2022-07-29T07:21:43.511Z,96018.84
2022-07-29T07:26:46.132Z,96018.25
2022-07-29T07:31:49.046Z,96026.00
2022-07-29T07:36:53.346Z,96023.47
2022-07-29T07:41:55.941Z,96038.31
2022-07-29T07:46:58.779Z,96032.16
2022-07-29T07:52:08.185Z,96035.25
2022-07-29T07:57:11.179Z,96039.91
2022-07-29T08:02:14.044Z,96034.91
2022-07-29T08:07:18.391Z,96034.22
2022-07-29T08:12:21.194Z,96040.59
2022-07-29T08:17:23.998Z,96033.50
2022-07-29T08:22:28.193Z,96035.69
2022-07-29T08:27:43.576Z,96032.19
2022-07-29T08:32:55.541Z,96029.34
2022-07-29T08:38:00.116Z,96022.72
2022-07-29T08:43:08.449Z,96024.13
2022-07-29T08:48:11.317Z,96030.56
2022-07-29T08:53:17.166Z,96020.66
2022-07-29T08:58:23.354Z,96015.56
2022-07-29T09:03:33.828Z,96010.44
2022-07-29T09:08:38.082Z,96021.69
2022-07-29T09:13:41.002Z,96041.78
2022-07-29T09:18:45.085Z,96039.59
2022-07-29T09:24:05.780Z,96032.22
2022-07-29T09:29:13.593Z,96035.84
2022-07-29T09:34:22.904Z,96033.59
2022-07-29T09:39:32.249Z,96037.94
2022-07-29T09:44:45.974Z,96046.69
2022-07-29T09:49:58.894Z,96045.69
2022-07-29T09:55:17.839Z,96052.34
2022-07-29T10:00:24.037Z,96064.91
2022-07-29T10:05:36.478Z,96071.09
2022-07-29T10:10:43.515Z,96081.31
2022-07-29T10:15:47.344Z,96083.53
2022-07-29T10:20:50.614Z,96096.31
2022-07-29T10:25:55.054Z,96108.25
2022-07-29T10:31:05.247Z,96115.16
2022-07-29T10:36:21.968Z,96145.50
2022-07-29T10:41:44.715Z,96160.31
2022-07-29T10:46:48.416Z,96158.72
2022-07-29T10:52:03.581Z,96193.34
2022-07-29T10:57:53.926Z,96214.91
2022-07-29T11:02:54.403Z,96232.94
2022-07-29T11:08:26.417Z,96229.22
2022-07-29T11:13:52.559Z,96223.47
2022-07-29T11:19:30.017Z,96228.03
2022-07-29T11:24:35.167Z,96223.59
2022-07-29T11:29:43.124Z,96238.31
2022-07-29T11:34:46.561Z,96229.97
2022-07-29T11:40:17.365Z,96228.91
2022-07-29T11:45:48.295Z,96243.41
2022-07-29T11:50:51.940Z,96236.66
2022-07-29T11:55:58.243Z,96234.56
2022-07-29T12:01:04.466Z,96242.22
2022-07-29T12:06:17.465Z,96223.28
2022-07-29T12:11:23.518Z,96227.59
2022-07-29T12:16:37.950Z,96221.28
2022-07-29T12:21:52.383Z,96228.88
2022-07-29T12:27:02.438Z,96227.81
2022-07-29T12:32:14.902Z,96227.91
2022-07-29T12:37:40.585Z,96231.31
2022-07-29T12:43:10.359Z,96236.69
2022-07-29T12:48:15.276Z,96231.75
2022-07-29T12:53:18.109Z,96237.84
2022-07-29T12:58:32.087Z,96238.88
2022-07-29T13:03:57.619Z,96245.69
2022-07-29T13:09:07.994Z,96246.06
2022-07-29T13:14:12.250Z,96238.69
2022-07-29T13:19:16.481Z,96227.78
2022-07-29T13:24:19.954Z,96231.81
2022-07-29T13:29:22.901Z,96218.00
2022-07-29T13:34:27.598Z,96223.56
2022-07-29T13:39:31.153Z,96223.97
2022-07-29T13:44:34.008Z,96219.38
2022-07-29T13:49:38.228Z,96218.56
2022-07-29T13:54:42.609Z,96207.78
2022-07-29T13:59:48.375Z,96218.03
2022-07-29T14:04:55.341Z,96206.97
2022-07-29T14:09:58.339Z,96206.06
2022-07-29T14:15:01.162Z,96195.59
2022-07-29T14:20:06.399Z,96190.41
2022-07-29T14:25:14.544Z,96191.84
2022-07-29T14:30:18.186Z,96191.84
2022-07-29T14:35:22.386Z,96183.28
2022-07-29T14:40:26.646Z,96175.81
2022-07-29T14:45:30.028Z,96174.09
2022-07-29T14:50:34.435Z,96170.22
2022-07-29T14:55:37.475Z,96169.47
2022-07-29T15:00:40.369Z,96176.47
2022-07-29T15:05:44.586Z,96168.16
2022-07-29T15:10:47.411Z,96176.16
2022-07-29T15:15:50.902Z,96162.03
2022-07-29T15:20:55.181Z,96155.06
2022-07-29T15:25:58.265Z,96157.53
2022-07-29T15:31:01.122Z,96161.72
2022-07-29T15:36:06.274Z,96149.91
2022-07-29T15:41:09.143Z,96156.50
2022-07-29T15:46:32.776Z,96154.88
2022-07-29T15:51:37.012Z,96144.00
2022-07-29T15:56:40.066Z,96143.22
2022-07-29T16:01:42.742Z,96136.44
2022-07-29T16:06:48.941Z,96142.03
2022-07-29T16:11:53.615Z,96138.97
2022-07-29T16:16:56.931Z,96136.09
2022-07-29T16:22:01.392Z,96135.94
2022-07-29T16:27:04.354Z,96136.34
2022-07-29T16:32:07.942Z,96133.69
2022-07-29T16:37:12.296Z,96130.00
2022-07-29T16:42:31.011Z,96134.69
2022-07-29T16:47:37.999Z,96138.63
2022-07-29T16:52:42.190Z,96133.91
2022-07-29T16:57:45.505Z,96138.09
2022-07-29T17:02:48.707Z,96134.63
2022-07-29T17:07:52.923Z,96137.75
2022-07-29T17:12:55.779Z,96146.13
2022-07-29T17:17:58.955Z,96141.97
2022-07-29T17:23:03.809Z,96147.91
2022-07-29T17:28:06.654Z,96152.78
2022-07-29T17:33:09.479Z,96155.78
2022-07-29T17:38:14.569Z,96158.28
2022-07-29T17:43:17.438Z,96151.81
2022-07-29T17:48:20.982Z,96159.63
2022-07-29T17:53:25.184Z,96158.69
2022-07-29T17:58:28.065Z,96162.53
2022-07-29T18:03:30.991Z,96162.53
2022-07-29T18:08:35.316Z,96157.03
2022-07-29T18:13:39.182Z,96164.06
2022-07-29T18:18:42.021Z,96170.69
2022-07-29T18:23:50.548Z,96183.00
2022-07-29T18:28:53.387Z,96176.69
2022-07-29T18:33:59.718Z,96181.03
2022-07-29T18:39:04.525Z,96164.91
2022-07-29T18:44:08.053Z,96183.25
2022-07-29T18:49:11.999Z,96175.78
2022-07-29T18:54:17.372Z,96182.00
2022-07-29T18:59:21.439Z,96180.78
2022-07-29T19:04:24.189Z,96189.03
2022-07-29T19:09:49.272Z,96200.25
2022-07-29T19:14:52.410Z,96211.13
2022-07-29T19:19:55.528Z,96213.38
2022-07-29T19:24:59.802Z,96213.34
2022-07-29T19:30:03.474Z,96214.34
2022-07-29T19:35:25.798Z,96215.78
2022-07-29T19:40:33.433Z,96228.94
2022-07-29T19:45:36.690Z,96236.03
2022-07-29T19:50:39.803Z,96246.84
2022-07-29T19:55:47.738Z,96260.19
2022-07-29T20:00:50.584Z,96261.25
2022-07-29T20:05:53.512Z,96266.25
2022-07-29T20:10:57.699Z,96272.31
2022-07-29T20:16:00.761Z,96283.78
2022-07-29T20:21:03.873Z,96281.97
2022-07-29T20:26:09.687Z,96277.09
2022-07-29T20:31:15.531Z,96277.59
2022-07-29T20:36:18.496Z,96273.66
2022-07-29T20:41:22.859Z,96272.09
2022-07-29T20:46:25.517Z,96278.69
2022-07-29T20:51:28.381Z,96275.09
2022-07-29T20:56:32.586Z,96278.78
2022-07-29T21:01:35.576Z,96280.44
2022-07-29T21:06:38.441Z,96276.44
2022-07-29T21:11:44.542Z,96276.69
2022-07-29T21:16:50.237Z,96280.59
2022-07-29T21:21:53.092Z,96274.66
2022-07-29T21:27:21.724Z,96279.94
2022-07-29T21:32:27.582Z,96281.34
2022-07-29T21:37:33.238Z,96278.47
2022-07-29T21:42:37.448Z,96282.94
2022-07-29T21:47:40.405Z,96286.53
2022-07-29T21:52:43.250Z,96285.22
2022-07-29T21:57:47.486Z,96282.78
2022-07-29T22:02:50.297Z,96291.09
2022-07-29T22:07:54.496Z,96292.50
2022-07-29T22:13:01.013Z,96292.88
2022-07-29T22:18:03.874Z,96295.91
2022-07-29T22:23:06.712Z,96313.19
2022-07-29T22:28:11.279Z,96306.97
2022-07-29T22:33:17.646Z,96314.41
2022-07-29T22:38:21.019Z,96315.38
2022-07-29T22:43:25.303Z,96314.13
2022-07-29T22:48:28.341Z,96312.19
2022-07-29T22:53:31.250Z,96324.75
2022-07-29T22:58:35.488Z,96319.47
2022-07-29T23:03:39.348Z,96321.25
2022-07-29T23:08:42.573Z,96315.22
2022-07-29T23:13:46.880Z,96295.50
2022-07-29T23:18:56.741Z,96315.47
2022-07-29T23:24:03.610Z,96315.22
2022-07-29T23:29:11.576Z,96323.97
2022-07-29T23:34:14.439Z,96331.97
2022-07-29T23:39:17.960Z,96316.31
2022-07-29T23:44:22.621Z,96318.59
2022-07-29T23:49:25.460Z,96313.94
2022-07-29T23:54:28.381Z,96324.31
2022-07-29T23:59:32.561Z,96333.22
